createdAt,value
2022-10-07T00:00:17.180Z,76.97
2022-10-07T00:02:46.074Z,62.05
2022-10-07T00:05:15.309Z,63.38
2022-10-07T00:07:44.695Z,70.30
2022-10-07T00:10:14.200Z,62.67
2022-10-07T00:12:43.470Z,72.50
2022-10-07T00:15:13.330Z,70.38
2022-10-07T00:17:42.697Z,72.72
2022-10-07T00:20:14.454Z,70.88
2022-10-07T00:22:44.690Z,65.35
2022-10-07T00:25:13.742Z,67.35
2022-10-07T00:27:43.682Z,66.97
2022-10-07T00:30:13.336Z,69.65
2022-10-07T00:32:45.047Z,62.08
2022-10-07T00:35:17.020Z,54.50
2022-10-07T00:37:46.573Z,54.80
2022-10-07T00:40:16.062Z,49.95
2022-10-07T00:42:45.427Z,71.10
2022-10-07T00:45:20.383Z,62.10
2022-10-07T00:47:52.656Z,65.22
2022-10-07T00:53:03.087Z,79.68
2022-10-07T00:55:34.246Z,74.75
2022-10-07T00:58:08.929Z,75.13
2022-10-07T01:00:40.620Z,67.60
2022-10-07T01:05:42.786Z,66.03
2022-10-07T01:08:15.169Z,69.55
2022-10-07T01:11:04.722Z,66.25
2022-10-07T01:13:44.500Z,65.00
2022-10-07T01:16:14.986Z,62.03
2022-10-07T01:18:55.763Z,62.65
2022-10-07T01:21:43.647Z,68.82
2022-10-07T01:24:36.436Z,63.80
2022-10-07T01:27:26.019Z,70.05
2022-10-07T01:30:04.627Z,63.42
2022-10-07T01:32:38.394Z,64.32
2022-10-07T01:35:17.134Z,74.07
2022-10-07T01:37:53.581Z,71.70
2022-10-07T01:40:31.823Z,87.25
2022-10-07T01:43:03.265Z,121.13
2022-10-07T01:45:34.084Z,135.82
2022-10-07T01:48:05.442Z,97.80
2022-10-07T01:50:37.505Z,96.78
2022-10-07T01:53:25.322Z,93.10
2022-10-07T01:56:18.317Z,81.00
2022-10-07T01:59:22.339Z,107.15
2022-10-07T02:02:17.845Z,132.07
2022-10-07T02:05:15.123Z,154.75
2022-10-07T02:07:55.284Z,157.02
2022-10-07T02:10:48.296Z,174.02
2022-10-07T02:13:32.976Z,136.27
2022-10-07T02:16:12.449Z,126.72
2022-10-07T02:18:51.611Z,114.65
2022-10-07T02:21:26.881Z,123.35
2022-10-07T02:23:58.439Z,125.38
2022-10-07T02:29:03.871Z,119.25
2022-10-07T02:31:37.159Z,130.32
2022-10-07T02:36:48.069Z,171.88
2022-10-07T02:39:18.159Z,191.10
2022-10-07T02:42:05.069Z,380.58
2022-10-07T02:44:47.785Z,190.45
2022-10-07T02:49:58.527Z,148.65
2022-10-07T02:52:32.641Z,153.98
2022-10-07T02:55:09.279Z,135.50
2022-10-07T02:57:44.153Z,146.30
2022-10-07T03:00:15.984Z,136.43
2022-10-07T03:03:06.424Z,147.68
2022-10-07T03:05:49.452Z,139.93
2022-10-07T03:08:22.444Z,130.90
2022-10-07T03:10:52.726Z,134.20
2022-10-07T03:13:22.317Z,118.63
2022-10-07T03:15:55.987Z,117.68
2022-10-07T03:18:29.679Z,103.10
2022-10-07T03:21:21.983Z,116.13
2022-10-07T03:26:30.600Z,83.07
2022-10-07T03:29:01.816Z,66.82
2022-10-07T03:31:32.359Z,61.88
2022-10-07T03:34:03.646Z,65.88
2022-10-07T03:36:34.128Z,58.35
2022-10-07T03:39:05.264Z,52.42
2022-10-07T03:41:35.968Z,59.17
2022-10-07T03:44:05.764Z,68.85
2022-10-07T03:46:36.376Z,67.40
2022-10-07T03:49:06.552Z,61.80
2022-10-07T03:51:37.428Z,54.75
2022-10-07T03:56:40.734Z,62.10
2022-10-07T03:59:11.253Z,74.80
2022-10-07T04:01:42.044Z,58.58
2022-10-07T04:04:11.998Z,78.40
2022-10-07T04:06:44.567Z,59.83
2022-10-07T04:09:16.926Z,61.78
2022-10-07T04:11:46.942Z,56.38
2022-10-07T04:14:18.230Z,65.97
2022-10-07T04:16:48.014Z,71.90
2022-10-07T04:19:18.336Z,75.43
2022-10-07T04:21:48.226Z,71.43
2022-10-07T04:24:18.262Z,74.75
2022-10-07T04:26:48.008Z,64.00
2022-10-07T04:29:17.984Z,73.93
2022-10-07T04:31:49.164Z,75.15
2022-10-07T04:34:20.009Z,82.15
2022-10-07T04:36:50.230Z,82.30
2022-10-07T04:39:19.914Z,87.95
2022-10-07T04:41:58.841Z,73.47
2022-10-07T04:44:33.507Z,81.20
2022-10-07T04:47:09.837Z,82.32
2022-10-07T04:49:41.116Z,87.35
2022-10-07T04:52:12.593Z,94.38
2022-10-07T04:54:44.439Z,94.03
2022-10-07T04:57:17.560Z,87.22
2022-10-07T04:59:50.009Z,105.82
2022-10-07T05:02:24.062Z,93.88
2022-10-07T05:04:54.187Z,127.10
2022-10-07T05:07:24.074Z,143.25
2022-10-07T05:09:53.869Z,136.32
2022-10-07T05:12:23.985Z,114.90
2022-10-07T05:14:53.639Z,122.80
2022-10-07T05:17:24.730Z,149.23
2022-10-07T05:19:54.561Z,158.88
2022-10-07T05:22:24.204Z,148.60
2022-10-07T05:24:57.659Z,153.05
2022-10-07T05:27:30.273Z,151.40
2022-10-07T05:30:01.899Z,146.25
2022-10-07T05:32:34.188Z,159.55
2022-10-07T05:35:04.827Z,196.95
2022-10-07T05:37:35.729Z,181.18
2022-10-07T05:40:07.202Z,168.02
2022-10-07T05:45:29.109Z,159.63
2022-10-07T05:48:00.456Z,164.07
2022-10-07T05:50:30.600Z,169.88
2022-10-07T05:53:00.833Z,166.25
2022-10-07T05:55:35.666Z,161.65
2022-10-07T05:58:08.267Z,156.65
2022-10-07T06:00:42.931Z,171.85
2022-10-07T06:03:13.224Z,168.80
2022-10-07T06:05:48.175Z,176.75
2022-10-07T06:08:23.538Z,180.40
2022-10-07T06:11:19.680Z,185.98
2022-10-07T06:13:52.064Z,192.75
2022-10-07T06:16:23.238Z,177.70
2022-10-07T06:21:29.456Z,183.45
2022-10-07T06:24:04.032Z,222.88
2022-10-07T06:26:36.850Z,216.85
2022-10-07T06:29:06.800Z,204.80
2022-10-07T06:31:37.371Z,197.82
2022-10-07T06:34:08.435Z,197.52
2022-10-07T06:36:39.996Z,219.18
2022-10-07T06:39:10.082Z,206.82
2022-10-07T06:41:43.268Z,208.27
2022-10-07T06:44:35.703Z,216.02
2022-10-07T06:47:11.431Z,208.55
2022-10-07T06:49:44.806Z,188.48
2022-10-07T06:52:15.406Z,214.75
2022-10-07T06:54:46.231Z,211.45
2022-10-07T06:57:43.863Z,214.52
2022-10-07T07:00:06.343Z,232.85
2022-10-07T07:02:38.136Z,237.05
2022-10-07T07:05:09.606Z,236.18
2022-10-07T07:07:39.769Z,289.33
2022-10-07T07:10:10.612Z,217.63
2022-10-07T07:12:43.500Z,207.25
2022-10-07T07:15:13.363Z,222.43
2022-10-07T07:17:42.890Z,205.77
2022-10-07T07:20:14.769Z,190.55
2022-10-07T07:22:44.431Z,229.32
2022-10-07T07:25:13.629Z,203.13
2022-10-07T07:27:43.438Z,173.02
2022-10-07T07:30:14.689Z,160.30
2022-10-07T07:32:46.857Z,147.50
2022-10-07T07:35:16.048Z,146.60
2022-10-07T07:37:49.250Z,161.25
2022-10-07T07:40:21.149Z,141.70
2022-10-07T07:42:51.330Z,155.32
2022-10-07T07:45:20.930Z,135.65
2022-10-07T07:47:51.155Z,172.18
2022-10-07T07:50:23.385Z,123.13
2022-10-07T07:52:57.177Z,134.13
2022-10-07T07:55:27.524Z,128.23
2022-10-07T07:58:01.112Z,121.00
2022-10-07T08:00:40.771Z,124.53
2022-10-07T08:03:10.763Z,123.25
2022-10-07T08:05:39.585Z,114.60
2022-10-07T08:08:08.852Z,136.82
2022-10-07T08:10:40.960Z,137.60
2022-10-07T08:13:13.844Z,115.40
2022-10-07T08:15:43.119Z,119.60
2022-10-07T08:18:14.352Z,123.63
2022-10-07T08:23:13.322Z,112.10
2022-10-07T08:25:42.629Z,119.95
2022-10-07T08:28:11.880Z,124.28
2022-10-07T08:30:40.992Z,111.47
2022-10-07T08:33:10.011Z,101.28
2022-10-07T08:35:39.272Z,91.60
2022-10-07T08:38:11.395Z,87.68
2022-10-07T08:40:50.900Z,104.70
2022-10-07T08:43:24.750Z,120.00
2022-10-07T08:46:05.640Z,90.00
2022-10-07T08:48:39.845Z,107.18
2022-10-07T08:51:22.732Z,121.20
2022-10-07T08:53:55.999Z,105.63
2022-10-07T08:56:26.956Z,90.95
2022-10-07T08:59:11.002Z,95.68
2022-10-07T09:01:50.742Z,102.30
2022-10-07T09:05:01.680Z,89.55
2022-10-07T09:07:48.948Z,98.60
2022-10-07T09:10:32.259Z,104.88
2022-10-07T09:13:33.620Z,102.13
2022-10-07T09:16:17.411Z,144.60
2022-10-07T09:18:54.374Z,99.05
2022-10-07T09:21:33.239Z,105.80
2022-10-07T09:24:17.403Z,138.93
2022-10-07T09:26:47.659Z,102.38
2022-10-07T09:29:26.000Z,105.65
2022-10-07T09:32:07.065Z,90.63
2022-10-07T09:34:46.253Z,97.28
2022-10-07T09:37:28.868Z,98.88
2022-10-07T09:40:23.840Z,97.78
2022-10-07T09:42:52.998Z,109.07
2022-10-07T09:45:32.519Z,103.97
2022-10-07T09:48:08.664Z,99.70
2022-10-07T09:50:44.413Z,96.18
2022-10-07T09:53:33.004Z,79.57
2022-10-07T09:56:02.461Z,90.38
2022-10-07T09:58:33.501Z,105.40
2022-10-07T10:01:04.028Z,100.67
2022-10-07T10:03:35.533Z,106.32
2022-10-07T10:06:06.799Z,94.90
2022-10-07T10:08:41.968Z,86.32
2022-10-07T10:11:20.185Z,103.50
2022-10-07T10:13:52.074Z,101.13
2022-10-07T10:16:27.488Z,113.95
2022-10-07T10:19:05.785Z,81.93
2022-10-07T10:21:42.780Z,76.65
2022-10-07T10:24:40.892Z,62.80
2022-10-07T10:27:29.482Z,81.15
2022-10-07T10:30:11.287Z,83.82
2022-10-07T10:33:05.519Z,87.10
2022-10-07T10:36:01.454Z,100.45
2022-10-07T10:38:48.685Z,73.88
2022-10-07T10:41:29.855Z,65.93
2022-10-07T10:44:08.116Z,70.93
2022-10-07T10:46:58.873Z,91.93
2022-10-07T10:49:36.073Z,91.18
2022-10-07T10:52:19.129Z,92.88
2022-10-07T10:55:37.805Z,68.10
2022-10-07T10:58:27.051Z,76.18
2022-10-07T11:01:22.191Z,79.63
2022-10-07T11:04:00.368Z,63.58
2022-10-07T11:06:34.282Z,66.97
2022-10-07T11:09:05.176Z,65.35
2022-10-07T11:11:36.603Z,79.13
2022-10-07T11:14:22.019Z,71.07
2022-10-07T11:16:59.990Z,73.72
2022-10-07T11:19:39.676Z,71.88
2022-10-07T11:22:18.961Z,68.53
2022-10-07T11:24:56.158Z,78.10
2022-10-07T11:27:31.192Z,88.65
2022-10-07T11:30:21.016Z,75.28
2022-10-07T11:33:16.294Z,93.57
2022-10-07T11:35:53.077Z,76.28
2022-10-07T11:38:31.136Z,72.32
2022-10-07T11:41:17.831Z,69.95
2022-10-07T11:43:55.000Z,69.93
2022-10-07T11:46:37.265Z,82.32
2022-10-07T11:49:30.183Z,83.10
2022-10-07T11:52:05.357Z,89.43
2022-10-07T11:54:52.186Z,85.50
2022-10-07T11:57:25.841Z,71.50
2022-10-07T12:00:09.244Z,79.43
2022-10-07T12:02:46.798Z,89.40
2022-10-07T12:05:51.417Z,80.35
2022-10-07T12:08:34.168Z,80.53
2022-10-07T12:11:38.489Z,89.43
2022-10-07T12:14:34.195Z,103.72
2022-10-07T12:17:20.328Z,86.93
2022-10-07T12:20:28.084Z,85.97
2022-10-07T12:23:23.152Z,95.70
2022-10-07T12:26:04.251Z,97.70
2022-10-07T12:28:43.368Z,98.68
2022-10-07T12:31:19.676Z,102.07
2022-10-07T12:33:48.863Z,82.47
2022-10-07T12:36:23.290Z,89.65
2022-10-07T12:38:59.539Z,82.72
2022-10-07T12:41:40.616Z,82.05
2022-10-07T12:44:16.282Z,91.82
2022-10-07T12:46:54.016Z,83.03
2022-10-07T12:49:43.699Z,93.57
2022-10-07T12:52:17.126Z,90.75
2022-10-07T12:55:01.374Z,90.63
2022-10-07T12:57:39.790Z,85.57
2022-10-07T13:00:38.496Z,90.10
2022-10-07T13:03:47.921Z,91.63
2022-10-07T13:06:33.057Z,80.60
2022-10-07T13:09:37.649Z,79.72
2022-10-07T13:12:24.871Z,78.65
2022-10-07T13:15:18.052Z,80.68
2022-10-07T13:18:16.478Z,75.55
2022-10-07T13:20:45.471Z,79.38
2022-10-07T13:23:24.617Z,83.65
2022-10-07T13:25:58.807Z,69.55
2022-10-07T13:28:53.049Z,74.28
2022-10-07T13:31:28.091Z,72.53
2022-10-07T13:34:00.039Z,77.35
2022-10-07T13:36:31.338Z,70.45
2022-10-07T13:39:19.926Z,82.15
2022-10-07T13:41:52.065Z,74.63
2022-10-07T13:44:22.346Z,76.20
2022-10-07T13:46:54.733Z,79.43
2022-10-07T13:49:28.830Z,66.53
2022-10-07T13:52:02.742Z,73.35
2022-10-07T13:54:35.263Z,69.63
2022-10-07T13:57:07.736Z,60.03
2022-10-07T13:59:40.052Z,58.88
2022-10-07T14:02:16.353Z,67.05
2022-10-07T14:05:32.342Z,59.95
2022-10-07T14:08:15.976Z,59.97
2022-10-07T14:11:21.233Z,62.55
2022-10-07T14:13:50.548Z,57.75
2022-10-07T14:16:25.474Z,67.63
2022-10-07T14:18:54.620Z,64.30
2022-10-07T14:21:23.608Z,59.40
2022-10-07T14:23:52.755Z,64.30
2022-10-07T14:26:22.139Z,59.88
2022-10-07T14:28:51.150Z,56.33
2022-10-07T14:31:40.666Z,76.97
2022-10-07T14:34:40.569Z,50.60
2022-10-07T14:37:19.698Z,54.78
2022-10-07T14:39:51.052Z,62.08
2022-10-07T14:42:33.278Z,52.15
2022-10-07T14:45:05.655Z,50.75
2022-10-07T14:47:39.381Z,69.53
2022-10-07T14:50:08.783Z,64.55
2022-10-07T14:52:50.394Z,59.63
2022-10-07T14:55:26.750Z,58.95
2022-10-07T14:57:56.212Z,63.65
2022-10-07T15:00:28.609Z,59.55
2022-10-07T15:02:57.867Z,52.58
2022-10-07T15:05:27.746Z,63.50
2022-10-07T15:07:56.874Z,56.53
2022-10-07T15:10:27.721Z,68.32
2022-10-07T15:13:00.467Z,59.75
2022-10-07T15:15:29.595Z,56.47
2022-10-07T15:17:58.442Z,62.53
2022-10-07T15:20:28.467Z,57.00
2022-10-07T15:22:58.121Z,59.00
2022-10-07T15:25:27.211Z,68.65
2022-10-07T15:27:56.536Z,80.85
2022-10-07T15:30:26.838Z,63.80
2022-10-07T15:32:59.947Z,59.17
2022-10-07T15:35:29.221Z,64.55
2022-10-07T15:37:58.182Z,59.90
2022-10-07T15:40:27.538Z,57.33
2022-10-07T15:42:58.656Z,54.10
2022-10-07T15:45:28.399Z,57.63
2022-10-07T15:48:00.521Z,58.30
2022-10-07T15:50:30.025Z,63.20
2022-10-07T15:52:58.885Z,56.13
2022-10-07T15:55:28.155Z,68.03
2022-10-07T15:57:57.798Z,56.00
2022-10-07T16:00:26.806Z,58.22
2022-10-07T16:03:00.481Z,53.58
2022-10-07T16:05:32.244Z,62.92
2022-10-07T16:08:03.815Z,56.03
2022-10-07T16:10:38.272Z,55.55
2022-10-07T16:13:07.275Z,44.22
2022-10-07T16:15:37.734Z,58.78
2022-10-07T16:18:07.570Z,56.78
2022-10-07T16:20:45.188Z,53.53
2022-10-07T16:23:14.448Z,59.78
2022-10-07T16:25:43.215Z,48.78
2022-10-07T16:28:30.327Z,52.40
2022-10-07T16:30:59.566Z,54.95
2022-10-07T16:33:28.411Z,60.97
2022-10-07T16:35:57.451Z,66.85
2022-10-07T16:38:26.253Z,67.63
2022-10-07T16:40:55.992Z,55.50
2022-10-07T16:43:24.973Z,59.60
2022-10-07T16:45:54.008Z,54.67
2022-10-07T16:48:22.970Z,73.75
2022-10-07T16:50:51.967Z,64.22
2022-10-07T16:53:20.843Z,57.75
2022-10-07T16:55:49.721Z,57.63
2022-10-07T16:58:18.541Z,55.20
2022-10-07T17:00:50.872Z,56.17
2022-10-07T17:03:23.467Z,57.10
2022-10-07T17:05:59.943Z,50.95
2022-10-07T17:08:37.716Z,52.90
2022-10-07T17:11:10.916Z,49.33
2022-10-07T17:13:40.597Z,49.88
2022-10-07T17:16:10.136Z,57.03
2022-10-07T17:18:39.296Z,55.75
2022-10-07T17:21:08.179Z,58.80
2022-10-07T17:23:37.321Z,53.40
2022-10-07T17:26:10.005Z,53.08
2022-10-07T17:28:39.072Z,58.47
2022-10-07T17:31:10.282Z,58.00
2022-10-07T17:33:44.067Z,50.23
2022-10-07T17:36:14.327Z,59.70
2022-10-07T17:38:45.678Z,57.42
2022-10-07T17:41:26.879Z,54.75
2022-10-07T17:43:58.634Z,59.20
2022-10-07T17:46:30.815Z,48.95
2022-10-07T17:51:32.098Z,56.33
2022-10-07T17:54:02.989Z,50.30
2022-10-07T17:56:33.288Z,57.28
2022-10-07T17:59:03.641Z,53.70
2022-10-07T18:01:34.901Z,49.40
2022-10-07T18:04:07.194Z,54.60
2022-10-07T18:06:38.397Z,53.22
2022-10-07T18:09:09.331Z,62.08
2022-10-07T18:11:56.724Z,58.38
2022-10-07T18:14:43.838Z,61.10
2022-10-07T18:17:13.102Z,55.33
2022-10-07T18:19:42.310Z,59.92
2022-10-07T18:22:11.756Z,63.65
2022-10-07T18:24:40.790Z,60.33
2022-10-07T18:27:10.100Z,55.42
2022-10-07T18:29:41.477Z,61.42
2022-10-07T18:32:10.651Z,57.67
2022-10-07T18:34:39.544Z,56.85
2022-10-07T18:37:08.764Z,62.83
2022-10-07T18:39:37.883Z,59.08
2022-10-07T18:42:06.871Z,66.30
2022-10-07T18:44:37.085Z,57.08
2022-10-07T18:47:06.270Z,56.63
2022-10-07T18:49:35.894Z,61.78
2022-10-07T18:52:08.360Z,57.80
2022-10-07T18:54:38.874Z,54.67
2022-10-07T18:57:07.863Z,56.28
2022-10-07T18:59:36.660Z,61.50
2022-10-07T19:02:05.947Z,53.88
2022-10-07T19:04:35.033Z,58.75
2022-10-07T19:07:06.087Z,63.33
2022-10-07T19:09:35.306Z,60.95
2022-10-07T19:12:04.207Z,48.70
2022-10-07T19:14:35.439Z,56.58
2022-10-07T19:17:04.373Z,53.13
2022-10-07T19:19:35.170Z,63.97
2022-10-07T19:22:05.184Z,51.67
2022-10-07T19:24:53.378Z,56.55
2022-10-07T19:27:22.946Z,54.85
2022-10-07T19:29:52.320Z,52.00
2022-10-07T19:32:22.174Z,58.63
2022-10-07T19:34:52.730Z,66.57
2022-10-07T19:37:21.768Z,53.55
2022-10-07T19:39:51.052Z,63.42
2022-10-07T19:42:20.286Z,51.88
2022-10-07T19:44:49.587Z,53.55
2022-10-07T19:47:19.273Z,63.95
2022-10-07T19:49:50.260Z,54.90
2022-10-07T19:52:19.807Z,53.80
2022-10-07T19:54:50.758Z,50.67
2022-10-07T19:57:19.915Z,57.35
2022-10-07T19:59:48.975Z,53.08
2022-10-07T20:02:18.603Z,63.13
2022-10-07T20:04:48.311Z,51.88
2022-10-07T20:07:22.142Z,57.90
2022-10-07T20:09:51.255Z,55.10
2022-10-07T20:12:20.438Z,60.45
2022-10-07T20:14:49.536Z,54.15
2022-10-07T20:17:19.276Z,50.72
2022-10-07T20:19:48.490Z,59.75
2022-10-07T20:22:17.653Z,62.17
2022-10-07T20:24:46.870Z,63.67
2022-10-07T20:27:15.661Z,58.50
2022-10-07T20:29:59.324Z,54.50
2022-10-07T20:32:30.542Z,63.53
2022-10-07T20:34:59.960Z,60.15
2022-10-07T20:37:29.079Z,53.67
2022-10-07T20:40:16.245Z,53.22
2022-10-07T20:42:47.078Z,56.63
2022-10-07T20:45:16.540Z,64.43
2022-10-07T20:47:46.170Z,51.97
2022-10-07T20:50:15.212Z,55.50
2022-10-07T20:52:46.224Z,51.15
2022-10-07T20:55:15.593Z,55.05
2022-10-07T20:57:44.329Z,49.03
2022-10-07T21:00:17.801Z,54.30
2022-10-07T21:02:47.198Z,45.88
2022-10-07T21:05:16.250Z,48.72
2022-10-07T21:07:45.548Z,57.70
2022-10-07T21:10:14.616Z,55.65
2022-10-07T21:12:45.681Z,48.75
2022-10-07T21:15:14.828Z,51.40
2022-10-07T21:17:45.911Z,49.55
2022-10-07T21:20:15.096Z,48.35
2022-10-07T21:22:44.540Z,58.20
2022-10-07T21:25:14.139Z,56.10
2022-10-07T21:27:43.519Z,53.63
2022-10-07T21:30:13.345Z,50.95
2022-10-07T21:32:42.379Z,55.50
2022-10-07T21:35:12.444Z,51.50
2022-10-07T21:37:41.358Z,50.22
2022-10-07T21:40:11.077Z,58.40
2022-10-07T21:42:40.132Z,60.13
2022-10-07T21:45:10.242Z,52.20
2022-10-07T21:47:39.322Z,54.55
2022-10-07T21:50:09.591Z,51.35
2022-10-07T21:52:43.141Z,53.25
2022-10-07T21:55:12.287Z,55.30
2022-10-07T21:57:43.707Z,57.85
2022-10-07T22:00:13.508Z,49.10
2022-10-07T22:02:43.037Z,53.97
2022-10-07T22:05:15.556Z,47.83
2022-10-07T22:08:03.102Z,58.90
2022-10-07T22:10:32.698Z,53.78
2022-10-07T22:13:02.417Z,56.53
2022-10-07T22:15:32.378Z,49.40
2022-10-07T22:18:01.830Z,61.97
2022-10-07T22:20:31.761Z,59.55
2022-10-07T22:23:01.754Z,59.22
2022-10-07T22:25:31.932Z,59.53
2022-10-07T22:28:00.932Z,65.82
2022-10-07T22:30:30.093Z,67.63
2022-10-07T22:32:59.267Z,62.47
2022-10-07T22:35:33.911Z,54.55
2022-10-07T22:38:03.171Z,60.33
2022-10-07T22:40:32.077Z,60.55
2022-10-07T22:43:01.195Z,64.05
2022-10-07T22:45:30.263Z,55.83
2022-10-07T22:47:59.891Z,55.05
2022-10-07T22:50:28.826Z,59.33
2022-10-07T22:52:57.827Z,58.70
2022-10-07T22:55:27.995Z,59.38
2022-10-07T22:57:57.480Z,61.47
2022-10-07T23:00:26.340Z,56.90
2022-10-07T23:02:55.959Z,61.58
2022-10-07T23:05:25.417Z,56.97
2022-10-07T23:07:54.432Z,68.32
2022-10-07T23:10:24.203Z,68.05
2022-10-07T23:12:53.188Z,62.55
2022-10-07T23:15:22.053Z,71.13
2022-10-07T23:17:51.202Z,63.55
2022-10-07T23:20:20.266Z,61.60
2022-10-07T23:22:49.776Z,63.97
2022-10-07T23:25:18.574Z,70.38
2022-10-07T23:27:47.913Z,81.72
2022-10-07T23:30:16.748Z,72.50
2022-10-07T23:32:48.888Z,77.28
2022-10-07T23:35:18.392Z,69.82
2022-10-07T23:37:47.122Z,66.65
2022-10-07T23:40:16.266Z,75.28
2022-10-07T23:42:45.211Z,73.05
2022-10-07T23:45:15.481Z,90.60
2022-10-07T23:47:45.975Z,103.30
2022-10-07T23:50:15.357Z,108.68
2022-10-07T23:52:44.327Z,123.85
2022-10-07T23:55:14.064Z,127.75
2022-10-07T23:57:42.955Z,135.93
